sensor_id;sensor_type;location;lat;lon;timestamp;P1;durP1;ratioP1;P2;durP2;ratioP2
11078;SDS011;5592;49.234;7.268;2024-03-08T00:01:47;43.00;;;21.30;;
11078;SDS011;5592;49.234;7.268;2024-03-08T00:04:13;42.70;;;19.03;;
11078;SDS011;5592;49.234;7.268;2024-03-08T00:06:40;37.27;;;20.37;;
11078;SDS011;5592;49.234;7.268;2024-03-08T00:09:05;43.80;;;20.20;;
11078;SDS011;5592;49.234;7.268;2024-03-08T00:11:32;43.07;;;20.47;;
11078;SDS011;5592;49.234;7.268;2024-03-08T00:13:59;37.70;;;18.90;;
11078;SDS011;5592;49.234;7.268;2024-03-08T00:16:25;41.77;;;20.30;;
11078;SDS011;5592;49.234;7.268;2024-03-08T00:18:51;37.17;;;18.73;;
11078;SDS011;5592;49.234;7.268;2024-03-08T00:21:16;37.43;;;19.63;;
11078;SDS011;5592;49.234;7.268;2024-03-08T00:23:42;42.50;;;19.97;;
11078;SDS011;5592;49.234;7.268;2024-03-08T00:26:07;41.70;;;21.30;;
11078;SDS011;5592;49.234;7.268;2024-03-08T00:28:33;42.80;;;20.27;;
11078;SDS011;5592;49.234;7.268;2024-03-08T00:31:00;44.60;;;21.30;;
11078;SDS011;5592;49.234;7.268;2024-03-08T00:33:25;38.27;;;19.50;;
11078;SDS011;5592;49.234;7.268;2024-03-08T00:35:52;37.80;;;19.47;;
11078;SDS011;5592;49.234;7.268;2024-03-08T00:38:18;42.43;;;18.50;;
11078;SDS011;5592;49.234;7.268;2024-03-08T00:40:44;41.90;;;19.97;;
11078;SDS011;5592;49.234;7.268;2024-03-08T00:43:10;42.37;;;19.23;;
11078;SDS011;5592;49.234;7.268;2024-03-08T00:45:35;41.77;;;21.00;;
11078;SDS011;5592;49.234;7.268;2024-03-08T00:48:02;37.53;;;18.80;;
11078;SDS011;5592;49.234;7.268;2024-03-08T00:50:28;42.80;;;19.47;;
11078;SDS011;5592;49.234;7.268;2024-03-08T00:52:54;38.80;;;19.17;;
11078;SDS011;5592;49.234;7.268;2024-03-08T00:55:19;39.13;;;19.10;;
11078;SDS011;5592;49.234;7.268;2024-03-08T00:57:45;38.80;;;19.10;;
11078;SDS011;5592;49.234;7.268;2024-03-08T01:00:11;37.57;;;19.70;;
11078;SDS011;5592;49.234;7.268;2024-03-08T01:02:40;49.77;;;21.30;;
11078;SDS011;5592;49.234;7.268;2024-03-08T01:05:05;36.70;;;20.40;;
11078;SDS011;5592;49.234;7.268;2024-03-08T01:07:34;39.47;;;19.60;;
11078;SDS011;5592;49.234;7.268;2024-03-08T01:10:00;46.57;;;19.27;;
11078;SDS011;5592;49.234;7.268;2024-03-08T01:12:28;32.47;;;19.00;;
11078;SDS011;5592;49.234;7.268;2024-03-08T01:14:54;40.03;;;22.13;;
11078;SDS011;5592;49.234;7.268;2024-03-08T01:17:20;44.43;;;18.80;;
11078;SDS011;5592;49.234;7.268;2024-03-08T01:19:45;37.50;;;18.83;;
11078;SDS011;5592;49.234;7.268;2024-03-08T01:22:11;41.57;;;19.30;;
11078;SDS011;5592;49.234;7.268;2024-03-08T01:24:36;40.90;;;21.07;;
11078;SDS011;5592;49.234;7.268;2024-03-08T01:27:02;41.73;;;19.50;;
11078;SDS011;5592;49.234;7.268;2024-03-08T01:29:28;42.40;;;20.93;;
11078;SDS011;5592;49.234;7.268;2024-03-08T01:31:54;38.87;;;19.40;;
11078;SDS011;5592;49.234;7.268;2024-03-08T01:34:21;38.77;;;20.40;;
11078;SDS011;5592;49.234;7.268;2024-03-08T01:36:47;38.50;;;20.17;;
11078;SDS011;5592;49.234;7.268;2024-03-08T01:39:13;36.93;;;18.67;;
11078;SDS011;5592;49.234;7.268;2024-03-08T01:41:39;32.70;;;18.60;;
11078;SDS011;5592;49.234;7.268;2024-03-08T01:44:05;37.77;;;20.33;;
11078;SDS011;5592;49.234;7.268;2024-03-08T01:46:32;43.40;;;21.70;;
11078;SDS011;5592;49.234;7.268;2024-03-08T01:48:59;37.80;;;20.57;;
11078;SDS011;5592;49.234;7.268;2024-03-08T01:51:26;32.77;;;18.27;;
11078;SDS011;5592;49.234;7.268;2024-03-08T01:53:53;37.83;;;20.80;;
11078;SDS011;5592;49.234;7.268;2024-03-08T01:56:20;40.70;;;20.50;;
11078;SDS011;5592;49.234;7.268;2024-03-08T01:58:46;47.40;;;21.40;;
11078;SDS011;5592;49.234;7.268;2024-03-08T02:01:12;46.10;;;20.30;;
11078;SDS011;5592;49.234;7.268;2024-03-08T02:03:40;44.80;;;20.23;;
11078;SDS011;5592;49.234;7.268;2024-03-08T02:06:05;39.60;;;20.30;;
11078;SDS011;5592;49.234;7.268;2024-03-08T02:08:35;38.73;;;19.57;;
11078;SDS011;5592;49.234;7.268;2024-03-08T02:11:01;33.30;;;17.73;;
11078;SDS011;5592;49.234;7.268;2024-03-08T02:13:27;38.77;;;18.63;;
11078;SDS011;5592;49.234;7.268;2024-03-08T02:15:54;42.03;;;19.03;;
11078;SDS011;5592;49.234;7.268;2024-03-08T02:18:20;39.70;;;19.43;;
11078;SDS011;5592;49.234;7.268;2024-03-08T02:23:18;34.93;;;17.73;;
11078;SDS011;5592;49.234;7.268;2024-03-08T02:25:47;41.90;;;20.03;;
11078;SDS011;5592;49.234;7.268;2024-03-08T02:28:14;34.83;;;18.40;;
11078;SDS011;5592;49.234;7.268;2024-03-08T02:30:40;39.53;;;17.80;;
11078;SDS011;5592;49.234;7.268;2024-03-08T02:33:06;32.20;;;17.40;;
11078;SDS011;5592;49.234;7.268;2024-03-08T02:35:34;35.20;;;17.97;;
11078;SDS011;5592;49.234;7.268;2024-03-08T02:38:00;42.03;;;18.43;;
11078;SDS011;5592;49.234;7.268;2024-03-08T02:40:26;39.53;;;19.23;;
11078;SDS011;5592;49.234;7.268;2024-03-08T02:42:52;35.67;;;18.47;;
11078;SDS011;5592;49.234;7.268;2024-03-08T02:45:18;34.50;;;17.50;;
11078;SDS011;5592;49.234;7.268;2024-03-08T02:47:43;39.80;;;20.27;;
11078;SDS011;5592;49.234;7.268;2024-03-08T02:50:09;39.87;;;19.03;;
11078;SDS011;5592;49.234;7.268;2024-03-08T02:52:35;34.27;;;18.33;;
11078;SDS011;5592;49.234;7.268;2024-03-08T02:55:01;40.60;;;18.43;;
11078;SDS011;5592;49.234;7.268;2024-03-08T02:57:26;38.37;;;19.30;;
11078;SDS011;5592;49.234;7.268;2024-03-08T02:59:53;42.77;;;20.60;;
11078;SDS011;5592;49.234;7.268;2024-03-08T03:02:19;39.87;;;18.67;;
11078;SDS011;5592;49.234;7.268;2024-03-08T03:04:44;42.27;;;19.67;;
11078;SDS011;5592;49.234;7.268;2024-03-08T03:07:10;37.53;;;20.07;;
11078;SDS011;5592;49.234;7.268;2024-03-08T03:09:36;47.27;;;20.13;;
11078;SDS011;5592;49.234;7.268;2024-03-08T03:12:01;40.80;;;19.90;;
11078;SDS011;5592;49.234;7.268;2024-03-08T03:14:27;47.77;;;19.30;;
11078;SDS011;5592;49.234;7.268;2024-03-08T03:16:53;42.83;;;20.67;;
11078;SDS011;5592;49.234;7.268;2024-03-08T03:19:19;42.60;;;20.70;;
11078;SDS011;5592;49.234;7.268;2024-03-08T03:21:45;38.20;;;19.47;;
11078;SDS011;5592;49.234;7.268;2024-03-08T03:24:11;48.10;;;21.63;;
11078;SDS011;5592;49.234;7.268;2024-03-08T03:26:37;49.03;;;21.60;;
11078;SDS011;5592;49.234;7.268;2024-03-08T03:29:04;50.20;;;24.13;;
11078;SDS011;5592;49.234;7.268;2024-03-08T03:31:31;53.70;;;23.43;;
11078;SDS011;5592;49.234;7.268;2024-03-08T03:33:57;44.87;;;21.50;;
11078;SDS011;5592;49.234;7.268;2024-03-08T03:36:28;39.73;;;21.00;;
11078;SDS011;5592;49.234;7.268;2024-03-08T03:38:57;56.60;;;24.10;;
11078;SDS011;5592;49.234;7.268;2024-03-08T03:41:34;50.40;;;23.97;;
11078;SDS011;5592;49.234;7.268;2024-03-08T03:44:00;47.63;;;23.13;;
11078;SDS011;5592;49.234;7.268;2024-03-08T03:46:25;52.97;;;23.20;;
11078;SDS011;5592;49.234;7.268;2024-03-08T03:48:52;46.20;;;22.13;;
11078;SDS011;5592;49.234;7.268;2024-03-08T03:51:18;48.80;;;23.13;;
11078;SDS011;5592;49.234;7.268;2024-03-08T03:53:45;38.93;;;21.17;;
11078;SDS011;5592;49.234;7.268;2024-03-08T03:56:10;43.10;;;22.60;;
11078;SDS011;5592;49.234;7.268;2024-03-08T03:58:36;41.80;;;22.50;;
11078;SDS011;5592;49.234;7.268;2024-03-08T04:01:04;45.17;;;22.67;;
11078;SDS011;5592;49.234;7.268;2024-03-08T04:03:29;38.03;;;19.53;;
11078;SDS011;5592;49.234;7.268;2024-03-08T04:05:55;37.40;;;19.10;;
11078;SDS011;5592;49.234;7.268;2024-03-08T04:08:20;38.67;;;19.30;;
11078;SDS011;5592;49.234;7.268;2024-03-08T04:10:46;36.30;;;18.70;;
11078;SDS011;5592;49.234;7.268;2024-03-08T04:13:11;37.90;;;20.17;;
11078;SDS011;5592;49.234;7.268;2024-03-08T04:15:37;40.00;;;19.27;;
11078;SDS011;5592;49.234;7.268;2024-03-08T04:18:03;34.27;;;18.90;;
11078;SDS011;5592;49.234;7.268;2024-03-08T04:20:29;34.40;;;17.80;;
11078;SDS011;5592;49.234;7.268;2024-03-08T04:22:55;33.27;;;16.97;;
11078;SDS011;5592;49.234;7.268;2024-03-08T04:25:21;34.37;;;17.97;;
11078;SDS011;5592;49.234;7.268;2024-03-08T04:27:46;36.90;;;19.50;;
11078;SDS011;5592;49.234;7.268;2024-03-08T04:30:13;47.53;;;21.20;;
11078;SDS011;5592;49.234;7.268;2024-03-08T04:32:39;38.23;;;19.03;;
11078;SDS011;5592;49.234;7.268;2024-03-08T04:35:07;34.63;;;19.07;;
11078;SDS011;5592;49.234;7.268;2024-03-08T04:37:33;34.10;;;17.53;;
11078;SDS011;5592;49.234;7.268;2024-03-08T04:39:59;36.27;;;17.87;;
11078;SDS011;5592;49.234;7.268;2024-03-08T04:42:24;38.13;;;18.53;;
11078;SDS011;5592;49.234;7.268;2024-03-08T04:44:52;35.57;;;17.90;;
11078;SDS011;5592;49.234;7.268;2024-03-08T04:47:18;34.40;;;17.00;;
11078;SDS011;5592;49.234;7.268;2024-03-08T04:49:44;32.43;;;18.40;;
11078;SDS011;5592;49.234;7.268;2024-03-08T04:52:09;37.70;;;18.07;;
11078;SDS011;5592;49.234;7.268;2024-03-08T04:54:35;38.57;;;17.73;;
11078;SDS011;5592;49.234;7.268;2024-03-08T04:57:00;26.93;;;15.27;;
11078;SDS011;5592;49.234;7.268;2024-03-08T04:59:26;37.37;;;16.60;;
11078;SDS011;5592;49.234;7.268;2024-03-08T05:01:52;34.83;;;17.57;;
11078;SDS011;5592;49.234;7.268;2024-03-08T05:04:18;35.00;;;17.50;;
11078;SDS011;5592;49.234;7.268;2024-03-08T05:06:44;34.03;;;17.33;;
11078;SDS011;5592;49.234;7.268;2024-03-08T05:09:09;33.50;;;16.80;;
11078;SDS011;5592;49.234;7.268;2024-03-08T05:11:44;34.27;;;17.93;;
11078;SDS011;5592;49.234;7.268;2024-03-08T05:14:11;43.77;;;18.70;;
11078;SDS011;5592;49.234;7.268;2024-03-08T05:16:45;35.30;;;16.17;;
11078;SDS011;5592;49.234;7.268;2024-03-08T05:19:18;34.63;;;18.20;;
11078;SDS011;5592;49.234;7.268;2024-03-08T05:21:45;38.80;;;16.90;;
11078;SDS011;5592;49.234;7.268;2024-03-08T05:24:11;39.10;;;18.77;;
11078;SDS011;5592;49.234;7.268;2024-03-08T05:26:38;41.27;;;17.90;;
11078;SDS011;5592;49.234;7.268;2024-03-08T05:29:04;36.70;;;18.83;;
11078;SDS011;5592;49.234;7.268;2024-03-08T05:31:30;40.60;;;20.13;;
11078;SDS011;5592;49.234;7.268;2024-03-08T05:34:01;40.63;;;18.80;;
11078;SDS011;5592;49.234;7.268;2024-03-08T05:36:26;40.20;;;18.40;;
11078;SDS011;5592;49.234;7.268;2024-03-08T05:38:52;41.40;;;19.70;;
11078;SDS011;5592;49.234;7.268;2024-03-08T05:41:19;39.50;;;18.73;;
11078;SDS011;5592;49.234;7.268;2024-03-08T05:43:45;48.17;;;19.97;;
11078;SDS011;5592;49.234;7.268;2024-03-08T05:46:10;39.30;;;19.50;;
11078;SDS011;5592;49.234;7.268;2024-03-08T05:48:36;38.60;;;17.97;;
11078;SDS011;5592;49.234;7.268;2024-03-08T05:51:02;39.00;;;18.10;;
11078;SDS011;5592;49.234;7.268;2024-03-08T05:53:28;34.20;;;19.80;;
11078;SDS011;5592;49.234;7.268;2024-03-08T05:55:56;39.70;;;17.37;;
11078;SDS011;5592;49.234;7.268;2024-03-08T05:58:22;37.43;;;17.90;;
11078;SDS011;5592;49.234;7.268;2024-03-08T06:00:48;42.57;;;18.20;;
11078;SDS011;5592;49.234;7.268;2024-03-08T06:03:13;38.80;;;17.27;;
11078;SDS011;5592;49.234;7.268;2024-03-08T06:05:39;36.10;;;17.17;;
11078;SDS011;5592;49.234;7.268;2024-03-08T06:08:06;39.77;;;18.03;;
11078;SDS011;5592;49.234;7.268;2024-03-08T06:10:32;36.33;;;16.77;;
11078;SDS011;5592;49.234;7.268;2024-03-08T06:12:58;37.23;;;18.03;;
11078;SDS011;5592;49.234;7.268;2024-03-08T06:15:24;31.47;;;17.97;;
11078;SDS011;5592;49.234;7.268;2024-03-08T06:17:50;32.80;;;17.20;;
11078;SDS011;5592;49.234;7.268;2024-03-08T06:20:17;46.70;;;20.90;;
11078;SDS011;5592;49.234;7.268;2024-03-08T06:22:43;41.97;;;18.33;;
11078;SDS011;5592;49.234;7.268;2024-03-08T06:25:10;34.97;;;17.63;;
11078;SDS011;5592;49.234;7.268;2024-03-08T06:27:38;34.93;;;15.20;;
11078;SDS011;5592;49.234;7.268;2024-03-08T06:30:11;38.50;;;18.40;;
11078;SDS011;5592;49.234;7.268;2024-03-08T06:32:37;34.73;;;15.50;;
11078;SDS011;5592;49.234;7.268;2024-03-08T06:35:03;43.30;;;20.03;;
11078;SDS011;5592;49.234;7.268;2024-03-08T06:37:34;41.83;;;20.80;;
11078;SDS011;5592;49.234;7.268;2024-03-08T06:39:59;80.83;;;21.93;;
11078;SDS011;5592;49.234;7.268;2024-03-08T06:42:28;45.33;;;20.07;;
11078;SDS011;5592;49.234;7.268;2024-03-08T06:44:58;33.40;;;17.37;;
11078;SDS011;5592;49.234;7.268;2024-03-08T06:47:25;34.63;;;18.37;;
11078;SDS011;5592;49.234;7.268;2024-03-08T06:49:51;29.80;;;17.67;;
11078;SDS011;5592;49.234;7.268;2024-03-08T06:52:17;22.30;;;14.43;;
11078;SDS011;5592;49.234;7.268;2024-03-08T06:54:43;19.83;;;12.90;;
11078;SDS011;5592;49.234;7.268;2024-03-08T06:57:10;21.70;;;12.20;;
11078;SDS011;5592;49.234;7.268;2024-03-08T06:59:36;23.30;;;13.17;;
11078;SDS011;5592;49.234;7.268;2024-03-08T07:02:03;23.90;;;13.40;;
11078;SDS011;5592;49.234;7.268;2024-03-08T07:04:29;22.20;;;13.07;;
11078;SDS011;5592;49.234;7.268;2024-03-08T07:06:56;18.03;;;11.43;;
11078;SDS011;5592;49.234;7.268;2024-03-08T07:09:22;17.53;;;12.40;;
11078;SDS011;5592;49.234;7.268;2024-03-08T07:11:50;20.00;;;13.00;;
11078;SDS011;5592;49.234;7.268;2024-03-08T07:14:22;16.80;;;11.70;;
11078;SDS011;5592;49.234;7.268;2024-03-08T07:16:49;17.90;;;12.77;;
11078;SDS011;5592;49.234;7.268;2024-03-08T07:19:16;22.10;;;13.87;;
11078;SDS011;5592;49.234;7.268;2024-03-08T07:21:42;18.57;;;12.27;;
11078;SDS011;5592;49.234;7.268;2024-03-08T07:24:09;17.50;;;13.17;;
11078;SDS011;5592;49.234;7.268;2024-03-08T07:27:05;20.57;;;13.40;;
11078;SDS011;5592;49.234;7.268;2024-03-08T07:29:31;19.67;;;12.50;;
11078;SDS011;5592;49.234;7.268;2024-03-08T07:31:58;17.03;;;12.60;;
11078;SDS011;5592;49.234;7.268;2024-03-08T07:34:42;19.47;;;13.10;;
11078;SDS011;5592;49.234;7.268;2024-03-08T07:37:08;17.17;;;12.10;;
11078;SDS011;5592;49.234;7.268;2024-03-08T07:39:37;13.57;;;10.63;;
11078;SDS011;5592;49.234;7.268;2024-03-08T07:42:04;17.80;;;12.90;;
11078;SDS011;5592;49.234;7.268;2024-03-08T07:44:31;18.83;;;12.97;;
11078;SDS011;5592;49.234;7.268;2024-03-08T07:46:57;17.33;;;12.20;;
11078;SDS011;5592;49.234;7.268;2024-03-08T07:49:23;17.83;;;12.43;;
11078;SDS011;5592;49.234;7.268;2024-03-08T07:51:50;16.27;;;11.87;;
11078;SDS011;5592;49.234;7.268;2024-03-08T07:54:41;15.30;;;11.43;;
11078;SDS011;5592;49.234;7.268;2024-03-08T07:57:06;16.37;;;12.30;;
11078;SDS011;5592;49.234;7.268;2024-03-08T07:59:32;15.97;;;12.23;;
11078;SDS011;5592;49.234;7.268;2024-03-08T08:01:58;16.77;;;12.00;;
11078;SDS011;5592;49.234;7.268;2024-03-08T08:04:24;14.47;;;11.27;;
11078;SDS011;5592;49.234;7.268;2024-03-08T08:06:51;16.87;;;11.97;;
11078;SDS011;5592;49.234;7.268;2024-03-08T08:09:20;16.63;;;11.40;;
11078;SDS011;5592;49.234;7.268;2024-03-08T08:11:53;16.23;;;11.77;;
11078;SDS011;5592;49.234;7.268;2024-03-08T08:14:21;16.63;;;12.20;;
11078;SDS011;5592;49.234;7.268;2024-03-08T08:16:47;17.90;;;13.20;;
11078;SDS011;5592;49.234;7.268;2024-03-08T08:19:16;18.80;;;11.50;;
11078;SDS011;5592;49.234;7.268;2024-03-08T08:21:48;16.30;;;13.03;;
11078;SDS011;5592;49.234;7.268;2024-03-08T08:24:16;14.63;;;11.83;;
11078;SDS011;5592;49.234;7.268;2024-03-08T08:26:45;13.30;;;11.57;;
11078;SDS011;5592;49.234;7.268;2024-03-08T08:29:17;14.83;;;12.30;;
11078;SDS011;5592;49.234;7.268;2024-03-08T08:31:57;18.07;;;11.87;;
11078;SDS011;5592;49.234;7.268;2024-03-08T08:34:28;13.70;;;10.83;;
11078;SDS011;5592;49.234;7.268;2024-03-08T08:36:57;15.33;;;11.30;;
11078;SDS011;5592;49.234;7.268;2024-03-08T08:39:26;17.60;;;11.70;;
11078;SDS011;5592;49.234;7.268;2024-03-08T08:41:54;19.27;;;12.70;;
11078;SDS011;5592;49.234;7.268;2024-03-08T08:44:20;15.87;;;11.80;;
11078;SDS011;5592;49.234;7.268;2024-03-08T08:46:46;17.00;;;13.03;;
11078;SDS011;5592;49.234;7.268;2024-03-08T08:49:11;18.67;;;13.80;;
11078;SDS011;5592;49.234;7.268;2024-03-08T08:51:40;16.00;;;11.90;;
11078;SDS011;5592;49.234;7.268;2024-03-08T08:54:07;18.00;;;12.33;;
11078;SDS011;5592;49.234;7.268;2024-03-08T08:56:36;19.63;;;12.80;;
11078;SDS011;5592;49.234;7.268;2024-03-08T08:59:05;21.30;;;13.33;;
11078;SDS011;5592;49.234;7.268;2024-03-08T09:01:34;14.47;;;11.77;;
11078;SDS011;5592;49.234;7.268;2024-03-08T09:04:03;17.37;;;13.93;;
11078;SDS011;5592;49.234;7.268;2024-03-08T09:06:30;18.43;;;12.57;;
11078;SDS011;5592;49.234;7.268;2024-03-08T09:08:56;16.60;;;12.50;;
11078;SDS011;5592;49.234;7.268;2024-03-08T09:11:23;16.10;;;12.67;;
11078;SDS011;5592;49.234;7.268;2024-03-08T09:13:55;16.87;;;12.27;;
11078;SDS011;5592;49.234;7.268;2024-03-08T09:16:24;17.10;;;11.57;;
11078;SDS011;5592;49.234;7.268;2024-03-08T09:18:51;15.53;;;11.53;;
11078;SDS011;5592;49.234;7.268;2024-03-08T09:21:17;16.30;;;11.63;;
11078;SDS011;5592;49.234;7.268;2024-03-08T09:23:43;15.97;;;12.03;;
11078;SDS011;5592;49.234;7.268;2024-03-08T09:26:09;17.27;;;12.20;;
11078;SDS011;5592;49.234;7.268;2024-03-08T09:28:37;17.10;;;12.47;;
11078;SDS011;5592;49.234;7.268;2024-03-08T09:31:03;16.53;;;12.33;;
11078;SDS011;5592;49.234;7.268;2024-03-08T09:33:30;14.90;;;12.30;;
11078;SDS011;5592;49.234;7.268;2024-03-08T09:35:56;15.57;;;11.93;;
11078;SDS011;5592;49.234;7.268;2024-03-08T09:38:28;16.40;;;11.97;;
11078;SDS011;5592;49.234;7.268;2024-03-08T09:40:54;27.43;;;12.27;;
11078;SDS011;5592;49.234;7.268;2024-03-08T09:43:22;16.67;;;12.40;;
11078;SDS011;5592;49.234;7.268;2024-03-08T09:45:49;17.60;;;12.63;;
11078;SDS011;5592;49.234;7.268;2024-03-08T09:48:16;15.57;;;12.53;;
11078;SDS011;5592;49.234;7.268;2024-03-08T09:50:44;17.67;;;12.50;;
11078;SDS011;5592;49.234;7.268;2024-03-08T09:53:11;17.60;;;12.63;;
11078;SDS011;5592;49.234;7.268;2024-03-08T09:55:39;16.07;;;12.63;;
11078;SDS011;5592;49.234;7.268;2024-03-08T09:58:07;15.27;;;12.50;;
11078;SDS011;5592;49.234;7.268;2024-03-08T10:00:54;16.00;;;12.93;;
11078;SDS011;5592;49.234;7.268;2024-03-08T10:03:23;16.80;;;12.60;;
11078;SDS011;5592;49.234;7.268;2024-03-08T10:05:53;24.40;;;14.13;;
11078;SDS011;5592;49.234;7.268;2024-03-08T10:10:56;18.37;;;12.83;;
11078;SDS011;5592;49.234;7.268;2024-03-08T10:13:27;19.73;;;12.90;;
11078;SDS011;5592;49.234;7.268;2024-03-08T10:15:55;16.90;;;12.37;;
11078;SDS011;5592;49.234;7.268;2024-03-08T10:18:24;17.97;;;12.97;;
11078;SDS011;5592;49.234;7.268;2024-03-08T10:21:07;16.70;;;12.60;;
11078;SDS011;5592;49.234;7.268;2024-03-08T10:23:38;20.10;;;12.87;;
11078;SDS011;5592;49.234;7.268;2024-03-08T10:26:13;20.40;;;13.20;;
11078;SDS011;5592;49.234;7.268;2024-03-08T10:28:44;18.03;;;12.13;;
11078;SDS011;5592;49.234;7.268;2024-03-08T10:31:14;18.83;;;12.70;;
11078;SDS011;5592;49.234;7.268;2024-03-08T10:33:42;15.70;;;12.53;;
11078;SDS011;5592;49.234;7.268;2024-03-08T10:36:14;18.87;;;13.23;;
11078;SDS011;5592;49.234;7.268;2024-03-08T10:38:41;16.67;;;13.10;;
11078;SDS011;5592;49.234;7.268;2024-03-08T10:41:16;17.47;;;13.03;;
11078;SDS011;5592;49.234;7.268;2024-03-08T10:49:32;15.27;;;12.30;;
11078;SDS011;5592;49.234;7.268;2024-03-08T10:54:56;18.47;;;13.47;;
11078;SDS011;5592;49.234;7.268;2024-03-08T10:57:23;19.90;;;13.37;;
11078;SDS011;5592;49.234;7.268;2024-03-08T10:59:49;19.67;;;13.67;;
11078;SDS011;5592;49.234;7.268;2024-03-08T11:02:17;21.40;;;13.37;;
11078;SDS011;5592;49.234;7.268;2024-03-08T11:04:47;19.60;;;12.87;;
11078;SDS011;5592;49.234;7.268;2024-03-08T11:07:14;19.60;;;13.87;;
11078;SDS011;5592;49.234;7.268;2024-03-08T11:09:43;17.10;;;12.83;;
11078;SDS011;5592;49.234;7.268;2024-03-08T11:12:18;19.27;;;12.63;;
11078;SDS011;5592;49.234;7.268;2024-03-08T11:14:50;19.43;;;12.30;;
11078;SDS011;5592;49.234;7.268;2024-03-08T11:17:27;19.27;;;13.80;;
11078;SDS011;5592;49.234;7.268;2024-03-08T11:20:04;18.70;;;12.27;;
11078;SDS011;5592;49.234;7.268;2024-03-08T11:25:35;20.40;;;14.13;;
11078;SDS011;5592;49.234;7.268;2024-03-08T11:28:27;19.33;;;12.80;;
11078;SDS011;5592;49.234;7.268;2024-03-08T11:33:24;17.03;;;12.57;;
11078;SDS011;5592;49.234;7.268;2024-03-08T11:38:41;17.50;;;14.00;;
11078;SDS011;5592;49.234;7.268;2024-03-08T11:41:18;16.90;;;12.33;;
11078;SDS011;5592;49.234;7.268;2024-03-08T11:43:46;18.90;;;13.53;;
11078;SDS011;5592;49.234;7.268;2024-03-08T11:46:12;17.60;;;13.17;;
11078;SDS011;5592;49.234;7.268;2024-03-08T11:48:42;21.10;;;13.57;;
11078;SDS011;5592;49.234;7.268;2024-03-08T11:51:10;19.17;;;13.03;;
11078;SDS011;5592;49.234;7.268;2024-03-08T11:53:37;18.33;;;12.90;;
11078;SDS011;5592;49.234;7.268;2024-03-08T11:56:07;18.97;;;13.00;;
11078;SDS011;5592;49.234;7.268;2024-03-08T11:58:34;17.53;;;11.60;;
11078;SDS011;5592;49.234;7.268;2024-03-08T12:01:03;17.80;;;12.60;;
11078;SDS011;5592;49.234;7.268;2024-03-08T12:03:32;22.47;;;13.97;;
11078;SDS011;5592;49.234;7.268;2024-03-08T12:05:59;20.13;;;13.90;;
11078;SDS011;5592;49.234;7.268;2024-03-08T12:08:25;19.57;;;12.97;;
11078;SDS011;5592;49.234;7.268;2024-03-08T12:10:54;19.20;;;13.30;;
11078;SDS011;5592;49.234;7.268;2024-03-08T12:13:25;21.33;;;12.77;;
11078;SDS011;5592;49.234;7.268;2024-03-08T12:15:54;28.87;;;14.23;;
11078;SDS011;5592;49.234;7.268;2024-03-08T12:18:21;21.47;;;12.73;;
11078;SDS011;5592;49.234;7.268;2024-03-08T12:20:47;20.57;;;14.13;;
11078;SDS011;5592;49.234;7.268;2024-03-08T12:23:15;22.03;;;13.50;;
11078;SDS011;5592;49.234;7.268;2024-03-08T12:25:41;21.80;;;14.30;;
11078;SDS011;5592;49.234;7.268;2024-03-08T12:28:07;18.83;;;11.87;;
11078;SDS011;5592;49.234;7.268;2024-03-08T12:30:47;19.23;;;12.87;;
11078;SDS011;5592;49.234;7.268;2024-03-08T12:33:19;20.03;;;12.83;;
11078;SDS011;5592;49.234;7.268;2024-03-08T12:35:54;21.37;;;13.43;;
11078;SDS011;5592;49.234;7.268;2024-03-08T12:38:20;20.37;;;13.57;;
11078;SDS011;5592;49.234;7.268;2024-03-08T12:40:59;22.67;;;13.30;;
11078;SDS011;5592;49.234;7.268;2024-03-08T12:43:26;22.00;;;13.70;;
11078;SDS011;5592;49.234;7.268;2024-03-08T12:45:55;18.33;;;12.97;;
11078;SDS011;5592;49.234;7.268;2024-03-08T12:48:20;19.93;;;11.80;;
11078;SDS011;5592;49.234;7.268;2024-03-08T12:50:46;22.00;;;13.13;;
11078;SDS011;5592;49.234;7.268;2024-03-08T12:53:13;20.80;;;12.70;;
11078;SDS011;5592;49.234;7.268;2024-03-08T12:55:39;17.27;;;12.33;;
11078;SDS011;5592;49.234;7.268;2024-03-08T12:58:05;19.40;;;12.40;;
11078;SDS011;5592;49.234;7.268;2024-03-08T13:00:32;19.70;;;12.40;;
11078;SDS011;5592;49.234;7.268;2024-03-08T13:03:01;17.50;;;11.73;;
11078;SDS011;5592;49.234;7.268;2024-03-08T13:05:28;17.17;;;11.57;;
11078;SDS011;5592;49.234;7.268;2024-03-08T13:07:55;17.77;;;11.80;;
11078;SDS011;5592;49.234;7.268;2024-03-08T13:10:22;17.77;;;12.93;;
11078;SDS011;5592;49.234;7.268;2024-03-08T13:12:47;16.90;;;12.63;;
11078;SDS011;5592;49.234;7.268;2024-03-08T13:15:13;23.03;;;14.60;;
11078;SDS011;5592;49.234;7.268;2024-03-08T13:17:45;18.10;;;11.70;;
11078;SDS011;5592;49.234;7.268;2024-03-08T13:20:14;25.40;;;13.57;;
11078;SDS011;5592;49.234;7.268;2024-03-08T13:22:43;21.77;;;12.60;;
11078;SDS011;5592;49.234;7.268;2024-03-08T13:25:10;18.90;;;12.27;;
11078;SDS011;5592;49.234;7.268;2024-03-08T13:27:41;19.40;;;12.37;;
11078;SDS011;5592;49.234;7.268;2024-03-08T13:30:10;22.37;;;12.80;;
11078;SDS011;5592;49.234;7.268;2024-03-08T13:32:43;24.13;;;12.10;;
11078;SDS011;5592;49.234;7.268;2024-03-08T13:35:09;19.33;;;12.87;;
11078;SDS011;5592;49.234;7.268;2024-03-08T13:37:41;18.93;;;13.27;;
11078;SDS011;5592;49.234;7.268;2024-03-08T13:40:08;21.67;;;12.27;;
11078;SDS011;5592;49.234;7.268;2024-03-08T13:42:39;18.90;;;12.57;;
11078;SDS011;5592;49.234;7.268;2024-03-08T13:45:07;22.47;;;12.50;;
11078;SDS011;5592;49.234;7.268;2024-03-08T13:47:37;18.30;;;11.93;;
11078;SDS011;5592;49.234;7.268;2024-03-08T13:50:05;20.63;;;12.27;;
11078;SDS011;5592;49.234;7.268;2024-03-08T13:52:32;22.73;;;12.77;;
11078;SDS011;5592;49.234;7.268;2024-03-08T13:54:59;17.33;;;12.63;;
11078;SDS011;5592;49.234;7.268;2024-03-08T13:57:25;18.47;;;11.67;;
11078;SDS011;5592;49.234;7.268;2024-03-08T13:59:52;16.00;;;9.77;;
11078;SDS011;5592;49.234;7.268;2024-03-08T14:02:18;18.93;;;11.30;;
11078;SDS011;5592;49.234;7.268;2024-03-08T14:04:43;18.67;;;12.00;;
11078;SDS011;5592;49.234;7.268;2024-03-08T14:07:09;20.97;;;12.40;;
11078;SDS011;5592;49.234;7.268;2024-03-08T14:09:36;20.00;;;11.63;;
11078;SDS011;5592;49.234;7.268;2024-03-08T14:12:04;19.40;;;11.63;;
11078;SDS011;5592;49.234;7.268;2024-03-08T14:14:33;17.73;;;12.37;;
11078;SDS011;5592;49.234;7.268;2024-03-08T14:17:01;21.77;;;11.50;;
11078;SDS011;5592;49.234;7.268;2024-03-08T14:19:28;19.90;;;12.37;;
11078;SDS011;5592;49.234;7.268;2024-03-08T14:21:59;18.73;;;12.30;;
11078;SDS011;5592;49.234;7.268;2024-03-08T14:24:24;22.70;;;10.80;;
11078;SDS011;5592;49.234;7.268;2024-03-08T14:26:50;27.10;;;12.87;;
11078;SDS011;5592;49.234;7.268;2024-03-08T14:29:17;18.93;;;11.57;;
11078;SDS011;5592;49.234;7.268;2024-03-08T14:31:43;18.27;;;11.43;;
11078;SDS011;5592;49.234;7.268;2024-03-08T14:34:10;19.40;;;12.20;;
11078;SDS011;5592;49.234;7.268;2024-03-08T14:36:35;19.80;;;12.43;;
11078;SDS011;5592;49.234;7.268;2024-03-08T14:39:03;16.80;;;10.80;;
11078;SDS011;5592;49.234;7.268;2024-03-08T14:41:28;14.60;;;9.70;;
11078;SDS011;5592;49.234;7.268;2024-03-08T14:43:56;16.60;;;11.17;;
11078;SDS011;5592;49.234;7.268;2024-03-08T14:46:22;15.43;;;11.03;;
11078;SDS011;5592;49.234;7.268;2024-03-08T14:48:51;20.07;;;11.83;;
11078;SDS011;5592;49.234;7.268;2024-03-08T14:51:19;14.13;;;10.80;;
11078;SDS011;5592;49.234;7.268;2024-03-08T14:53:54;18.00;;;11.50;;
11078;SDS011;5592;49.234;7.268;2024-03-08T14:56:20;17.10;;;11.00;;
11078;SDS011;5592;49.234;7.268;2024-03-08T14:58:46;19.13;;;11.30;;
11078;SDS011;5592;49.234;7.268;2024-03-08T15:01:14;17.70;;;12.07;;